Time;durP1;ratioP1;P1;durP2;ratioP2;P2;SDS_P1;SDS_P2;PMS_P1;PMS_P2;Temp;Humidity;BMP_temperature;BMP_pressure;BME280_temperature;BME280_humidity;BME280_pressure;Samples;Min_cycle;Max_cycle;Signal;HPM_P1;HPM_P2
2023/01/24 00:02:07;;;;;;;5.82;0.90;;;;;;;;;;5015947;28;20485;-64
2023/01/24 00:04:37;;;;;;;3.53;0.70;;;;;;;;;;5049003;28;20049;-64
2023/01/24 00:07:07;;;;;;;3.95;0.82;;;;;;;;;;5034511;28;20059;-64
2023/01/24 00:09:36;;;;;;;1.52;0.63;;;;;;;;;;5091373;28;20047;-64
2023/01/24 00:12:07;;;;;;;2.50;0.90;;;;;;;;;;5039362;28;20056;-64
2023/01/24 00:14:37;;;;;;;2.25;0.90;;;;;;;;;;5091629;28;20055;-65
2023/01/24 00:17:07;;;;;;;2.83;0.90;;;;;;;;;;5091441;28;20052;-64
2023/01/24 00:19:37;;;;;;;1.40;0.70;;;;;;;;;;5055587;28;20048;-64
2023/01/24 00:22:08;;;;;;;2.15;0.98;;;;;;;;;;5055639;28;20055;-64
2023/01/24 00:24:37;;;;;;;1.85;0.85;;;;;;;;;;5089116;28;20523;-64
2023/01/24 00:27:07;;;;;;;1.98;0.80;;;;;;;;;;5091223;28;20071;-65
2023/01/24 00:29:37;;;;;;;2.00;0.80;;;;;;;;;;5038707;28;20063;-64
2023/01/24 00:32:07;;;;;;;2.83;0.90;;;;;;;;;;5038700;28;20052;-64
2023/01/24 00:34:37;;;;;;;2.55;0.73;;;;;;;;;;5091019;28;20049;-65
2023/01/24 00:37:07;;;;;;;1.60;0.80;;;;;;;;;;5031430;28;20547;-64
2023/01/24 00:39:37;;;;;;;2.28;1.00;;;;;;;;;;5048184;28;20535;-63
2023/01/24 00:42:07;;;;;;;5.47;0.95;;;;;;;;;;5008451;28;20553;-64
2023/01/24 00:44:37;;;;;;;1.55;0.93;;;;;;;;;;5008804;28;20623;-63
2023/01/24 00:47:08;;;;;;;2.22;0.85;;;;;;;;;;5008625;28;20061;-65
2023/01/24 00:49:39;;;;;;;1.88;1.00;;;;;;;;;;4977038;28;20418;-66
2023/01/24 00:52:09;;;;;;;2.30;0.70;;;;;;;;;;5008391;28;20054;-65
2023/01/24 00:54:40;;;;;;;8.30;0.93;;;;;;;;;;5008603;28;20062;-66
2023/01/24 00:57:11;;;;;;;3.47;0.95;;;;;;;;;;4975895;28;20159;-65
2023/01/24 00:59:42;;;;;;;8.90;1.10;;;;;;;;;;5008201;28;20178;-65
2023/01/24 01:02:12;;;;;;;7.75;1.30;;;;;;;;;;5027838;28;20061;-64
2023/01/24 01:04:43;;;;;;;2.85;0.98;;;;;;;;;;5008114;28;20046;-65
2023/01/24 01:07:13;;;;;;;1.85;1.25;;;;;;;;;;4975703;28;20080;-64
2023/01/24 01:09:43;;;;;;;2.53;0.95;;;;;;;;;;5008462;28;20062;-64
2023/01/24 01:12:14;;;;;;;3.22;1.15;;;;;;;;;;4959990;28;20855;-65
2023/01/24 01:14:43;;;;;;;3.92;1.15;;;;;;;;;;4997618;28;20045;-65
2023/01/24 01:17:14;;;;;;;2.28;1.10;;;;;;;;;;4988479;28;20477;-65
2023/01/24 01:19:44;;;;;;;3.38;1.00;;;;;;;;;;4972116;28;20062;-65
2023/01/24 01:22:14;;;;;;;1.98;0.95;;;;;;;;;;4988608;28;20055;-65
2023/01/24 01:24:44;;;;;;;3.08;0.80;;;;;;;;;;4988644;28;20054;-65
2023/01/24 01:27:14;;;;;;;2.60;0.90;;;;;;;;;;4988499;28;20062;-66
2023/01/24 01:29:44;;;;;;;4.22;0.70;;;;;;;;;;4949260;28;20058;-65
2023/01/24 01:32:13;;;;;;;4.75;0.90;;;;;;;;;;4965427;28;20094;-65
2023/01/24 01:34:44;;;;;;;3.80;0.85;;;;;;;;;;4949691;28;20070;-65
2023/01/24 01:37:14;;;;;;;4.05;1.02;;;;;;;;;;4949819;28;20056;-65
2023/01/24 01:39:44;;;;;;;2.38;0.80;;;;;;;;;;4958646;28;20067;-65
2023/01/24 01:42:14;;;;;;;4.30;0.80;;;;;;;;;;4966411;28;20054;-65
2023/01/24 01:44:48;;;;;;;1.88;0.80;;;;;;;;;;4972931;28;20057;-65
2023/01/24 01:47:21;;;;;;;2.72;0.82;;;;;;;;;;4961482;28;20065;-65
2023/01/24 01:49:53;;;;;;;4.38;1.20;;;;;;;;;;4995208;28;20049;-66
2023/01/24 01:52:27;;;;;;;3.47;0.82;;;;;;;;;;5021826;28;20049;-65
2023/01/24 01:55:02;;;;;;;3.85;0.85;;;;;;;;;;4991682;28;20166;-66
2023/01/24 01:57:34;;;;;;;2.47;0.75;;;;;;;;;;4956012;28;20047;-65
2023/01/24 02:00:15;;;;;;;2.42;1.02;;;;;;;;;;4956125;28;20043;-65
2023/01/24 02:02:54;;;;;;;3.60;0.90;;;;;;;;;;4956342;28;20058;-65
2023/01/24 02:05:26;;;;;;;1.75;1.00;;;;;;;;;;4955850;28;20055;-65
2023/01/24 02:08:01;;;;;;;;;;;;;;;;;;4972933;28;20062;-65
2023/01/24 02:11:37;;;;;;;4.60;0.98;;;;;;;;;;4955911;28;19922;-65
2023/01/24 02:13:22;;;;;;;2.50;0.80;;;;;;;;;;4956170;28;20061;-66
2023/01/24 02:16:03;;;;;;;2.88;1.05;;;;;;;;;;4933627;29;20096;-65
2023/01/24 02:18:39;;;;;;;3.78;1.10;;;;;;;;;;4933178;29;20058;-65
2023/01/24 02:21:16;;;;;;;3.58;1.70;;;;;;;;;;4936578;29;20432;-65
2023/01/24 02:24:17;;;;;;;1.65;0.77;;;;;;;;;;4952376;29;20458;-65
2023/01/24 02:26:48;;;;;;;4.05;1.13;;;;;;;;;;4892018;29;20053;-65
2023/01/24 02:29:20;;;;;;;4.25;1.00;;;;;;;;;;4876334;29;20064;-65
2023/01/24 02:32:00;;;;;;;2.72;0.85;;;;;;;;;;4908405;29;20075;-65
2023/01/24 02:34:31;;;;;;;2.50;1.13;;;;;;;;;;4930213;29;20204;-65
2023/01/24 02:37:05;;;;;;;4.18;1.27;;;;;;;;;;4933048;29;20533;-65
2023/01/24 02:39:45;;;;;;;4.03;1.38;;;;;;;;;;4917440;29;20494;-65
2023/01/24 02:42:22;;;;;;;3.35;1.00;;;;;;;;;;4886267;29;20062;-65
2023/01/24 02:45:15;;;;;;;5.05;1.10;;;;;;;;;;4913801;29;20545;-65
2023/01/24 02:47:50;;;;;;;2.42;0.93;;;;;;;;;;4866855;29;20053;-65
2023/01/24 02:50:24;;;;;;;2.22;1.00;;;;;;;;;;4891418;29;20053;-66
2023/01/24 02:58:31;;;;;;;1.60;0.82;;;;;;;;;;4882871;29;20048;-65
2023/01/24 03:01:02;;;;;;;4.32;1.13;;;;;;;;;;4863787;29;20052;-65
2023/01/24 03:03:32;;;;;;;2.13;0.90;;;;;;;;;;4871453;29;20081;-66
2023/01/24 03:06:02;;;;;;;1.92;0.88;;;;;;;;;;4840802;29;20471;-65
2023/01/24 03:08:36;;;;;;;2.88;1.00;;;;;;;;;;4859648;29;20045;-66
2023/01/24 03:11:15;;;;;;;1.73;0.82;;;;;;;;;;4875995;29;20057;-66
2023/01/24 03:36:19;;;;;;;2.13;0.82;;;;;;;;;;4872041;29;20060;-65
2023/01/24 03:41:43;;;;;;;4.70;1.00;;;;;;;;;;4913189;29;20338;-65
2023/01/24 03:44:13;;;;;;;2.20;1.00;;;;;;;;;;4894722;29;20060;-66
2023/01/24 03:46:44;;;;;;;2.80;0.70;;;;;;;;;;4882158;29;20485;-65
2023/01/24 03:49:16;;;;;;;3.13;0.75;;;;;;;;;;4905294;29;20051;-65
2023/01/24 03:54:36;;;;;;;2.40;0.98;;;;;;;;;;4856727;29;20132;-66
2023/01/24 03:57:07;;;;;;;1.65;0.68;;;;;;;;;;4865884;29;20449;-65
2023/01/24 03:59:38;;;;;;;2.10;1.10;;;;;;;;;;4862743;29;20064;-65
2023/01/24 04:02:08;;;;;;;2.28;0.95;;;;;;;;;;4865350;29;20539;-65
2023/01/24 04:07:29;;;;;;;2.70;0.85;;;;;;;;;;4855755;29;20057;-65
2023/01/24 04:10:03;;;;;;;2.90;0.80;;;;;;;;;;4874796;29;20052;-65
2023/01/24 04:12:40;;;;;;;1.58;0.75;;;;;;;;;;4875081;29;20064;-66
2023/01/24 04:15:19;;;;;;;2.47;0.88;;;;;;;;;;4912263;29;20198;-65
2023/01/24 04:17:57;;;;;;;1.65;0.93;;;;;;;;;;4900460;28;20058;-65
2023/01/24 04:20:29;;;;;;;2.83;0.70;;;;;;;;;;4912329;29;20048;-65
2023/01/24 04:23:06;;;;;;;2.78;1.00;;;;;;;;;;4918563;29;20053;-65
2023/01/24 04:25:39;;;;;;;4.00;1.17;;;;;;;;;;4915533;29;20058;-65
2023/01/24 04:28:09;;;;;;;2.00;1.30;;;;;;;;;;4893054;29;20098;-65
2023/01/24 04:30:39;;;;;;;3.20;1.10;;;;;;;;;;4893291;29;20052;-65
2023/01/24 04:33:23;;;;;;;2.42;1.10;;;;;;;;;;4875328;29;20053;-65
2023/01/24 04:35:57;;;;;;;2.50;1.02;;;;;;;;;;4845180;29;20510;-65
2023/01/24 04:38:28;;;;;;;3.05;1.25;;;;;;;;;;4856752;29;20053;-65
2023/01/24 04:41:05;;;;;;;4.20;1.48;;;;;;;;;;4874346;29;20395;-65
2023/01/24 04:43:41;;;;;;;5.28;1.60;;;;;;;;;;4930976;29;20059;-65
2023/01/24 04:46:12;;;;;;;2.33;1.02;;;;;;;;;;4967542;28;20057;-65
2023/01/24 04:48:52;;;;;;;2.38;1.05;;;;;;;;;;4913070;29;20052;-65
2023/01/24 04:51:31;;;;;;;1.55;0.93;;;;;;;;;;4814061;29;20049;-65
2023/01/24 04:54:04;;;;;;;3.50;1.00;;;;;;;;;;4874662;29;20084;-65
2023/01/24 04:56:36;;;;;;;2.20;1.20;;;;;;;;;;4838839;29;20053;-65
2023/01/24 04:59:07;;;;;;;4.80;1.23;;;;;;;;;;4824081;29;20053;-65
2023/01/24 05:01:38;;;;;;;5.07;1.20;;;;;;;;;;4871689;29;20522;-67
2023/01/24 05:04:18;;;;;;;5.05;1.80;;;;;;;;;;4857476;29;20080;-65
2023/01/24 05:06:49;;;;;;;3.80;1.10;;;;;;;;;;4894889;29;20060;-65
2023/01/24 05:09:19;;;;;;;4.30;1.00;;;;;;;;;;4875886;29;20099;-65
2023/01/24 05:11:55;;;;;;;3.63;0.98;;;;;;;;;;4867522;29;20529;-65
2023/01/24 05:14:26;;;;;;;3.20;1.05;;;;;;;;;;4873869;29;20061;-65
2023/01/24 05:16:56;;;;;;;7.57;1.45;;;;;;;;;;4888963;29;20064;-65
2023/01/24 05:19:26;;;;;;;6.60;1.17;;;;;;;;;;4930581;29;20425;-65
2023/01/24 05:21:59;;;;;;;2.58;1.00;;;;;;;;;;4893210;29;20060;-65
2023/01/24 05:24:35;;;;;;;5.70;1.30;;;;;;;;;;4918300;29;20049;-65
2023/01/24 05:27:08;;;;;;;5.70;1.35;;;;;;;;;;4915317;29;20056;-65
2023/01/24 05:29:43;;;;;;;4.18;1.50;;;;;;;;;;4901877;29;20096;-65
2023/01/24 05:32:13;;;;;;;2.17;1.20;;;;;;;;;;4915081;29;20070;-65
2023/01/24 05:34:43;;;;;;;4.78;1.42;;;;;;;;;;4915391;29;20416;-65
2023/01/24 05:37:13;;;;;;;3.08;1.30;;;;;;;;;;4930385;29;20052;-65
2023/01/24 05:39:44;;;;;;;4.63;1.20;;;;;;;;;;4896251;29;20048;-65
2023/01/24 05:42:15;;;;;;;7.18;1.50;;;;;;;;;;4903711;29;20045;-65
2023/01/24 05:44:47;;;;;;;2.30;1.20;;;;;;;;;;4896172;29;20060;-65
2023/01/24 05:47:17;;;;;;;3.13;1.30;;;;;;;;;;4903491;29;20053;-65
2023/01/24 05:49:47;;;;;;;6.47;1.15;;;;;;;;;;4872758;29;20048;-64
2023/01/24 05:52:21;;;;;;;2.60;1.00;;;;;;;;;;4856056;29;20065;-65
2023/01/24 05:54:53;;;;;;;3.05;1.15;;;;;;;;;;4880302;29;20739;-65
2023/01/24 05:57:37;;;;;;;4.93;1.58;;;;;;;;;;4876915;29;20049;-66
2023/01/24 06:00:27;;;;;;;3.85;1.30;;;;;;;;;;4878200;29;20061;-65
2023/01/24 06:03:20;;;;;;;2.30;1.17;;;;;;;;;;4877393;29;20053;-65
2023/01/24 06:05:54;;;;;;;3.20;1.30;;;;;;;;;;4878374;29;20422;-65
2023/01/24 06:08:28;;;;;;;2.85;1.15;;;;;;;;;;4859814;29;20061;-65
2023/01/24 06:11:08;;;;;;;2.92;1.30;;;;;;;;;;4894341;29;20409;-64
2023/01/24 06:13:37;;;;;;;;;;;;;;;;;;4877600;29;20053;-66
2023/01/24 06:16:15;;;;;;;1.95;1.15;;;;;;;;;;4876483;29;19924;-64
2023/01/24 06:18:48;;;;;;;3.63;1.20;;;;;;;;;;4895881;29;20060;-65
2023/01/24 06:21:44;;;;;;;1.92;0.90;;;;;;;;;;4895154;29;20202;-66
2023/01/24 06:24:26;;;;;;;3.03;1.13;;;;;;;;;;4861873;29;20056;-64
2023/01/24 06:27:16;;;;;;;3.38;1.10;;;;;;;;;;4856474;29;20050;-65
2023/01/24 06:29:46;;;;;;;2.65;1.20;;;;;;;;;;4812370;29;20050;-66
2023/01/24 06:32:28;;;;;;;2.72;1.25;;;;;;;;;;4853694;29;20049;-65
2023/01/24 06:35:10;;;;;;;3.25;1.00;;;;;;;;;;4876894;29;20049;-65
2023/01/24 06:37:43;;;;;;;3.08;1.02;;;;;;;;;;4876837;29;20065;-65
2023/01/24 06:40:16;;;;;;;3.42;1.17;;;;;;;;;;4876983;29;20061;-65
2023/01/24 06:42:47;;;;;;;4.80;1.02;;;;;;;;;;4895266;29;20057;-65
2023/01/24 06:45:17;;;;;;;5.70;1.00;;;;;;;;;;4893030;29;20057;-66
2023/01/24 06:47:47;;;;;;;4.45;1.00;;;;;;;;;;4909560;29;20064;-65
2023/01/24 06:50:20;;;;;;;2.30;1.00;;;;;;;;;;4879865;29;20758;-65
2023/01/24 06:52:53;;;;;;;3.58;1.10;;;;;;;;;;4891211;28;20060;-65
2023/01/24 06:55:23;;;;;;;5.50;1.02;;;;;;;;;;5000532;28;20052;-65
2023/01/24 06:57:59;;;;;;;2.67;1.30;;;;;;;;;;5058118;28;20669;-66
2023/01/24 07:00:30;;;;;;;3.67;1.15;;;;;;;;;;5058788;28;20064;-65
2023/01/24 07:03:07;;;;;;;2.58;1.15;;;;;;;;;;5093058;28;20044;-64
2023/01/24 07:05:39;;;;;;;3.25;1.00;;;;;;;;;;5040718;28;20058;-65
2023/01/24 07:08:10;;;;;;;1.90;1.00;;;;;;;;;;5073631;28;20063;-65
2023/01/24 07:10:40;;;;;;;5.22;1.20;;;;;;;;;;5042255;28;20087;-66
2023/01/24 07:13:10;;;;;;;2.78;1.27;;;;;;;;;;5092803;28;20047;-65
2023/01/24 07:15:40;;;;;;;1.98;0.98;;;;;;;;;;5057500;28;20056;-66
2023/01/24 07:18:12;;;;;;;2.88;1.25;;;;;;;;;;5092663;28;20071;-66
2023/01/24 07:20:43;;;;;;;2.38;1.13;;;;;;;;;;5092655;28;20048;-65
2023/01/24 07:23:27;;;;;;;3.90;1.00;;;;;;;;;;5092332;28;20070;-65
2023/01/24 07:25:58;;;;;;;4.35;1.20;;;;;;;;;;5040492;28;20075;-65
2023/01/24 07:28:30;;;;;;;3.90;1.40;;;;;;;;;;5056691;28;20074;-65
2023/01/24 07:31:00;;;;;;;2.95;1.38;;;;;;;;;;5089507;28;20063;-65
2023/01/24 07:33:30;;;;;;;4.32;1.48;;;;;;;;;;5089814;28;20439;-65
2023/01/24 07:36:00;;;;;;;5.35;0.90;;;;;;;;;;5056950;28;20067;-65
2023/01/24 07:38:30;;;;;;;3.30;1.20;;;;;;;;;;5089738;28;20554;-65
2023/01/24 07:41:07;;;;;;;4.00;1.33;;;;;;;;;;5089644;28;20055;-65
2023/01/24 07:43:38;;;;;;;3.95;1.13;;;;;;;;;;5028420;28;20049;-65
2023/01/24 07:46:08;;;;;;;3.05;1.10;;;;;;;;;;5029423;28;20061;-65
2023/01/24 07:48:38;;;;;;;5.80;1.60;;;;;;;;;;5013258;28;20477;-66
2023/01/24 07:51:09;;;;;;;2.35;1.20;;;;;;;;;;5029523;28;20770;-65
2023/01/24 07:53:40;;;;;;;3.65;1.23;;;;;;;;;;5029185;28;20065;-64
2023/01/24 07:56:09;;;;;;;4.38;1.23;;;;;;;;;;5029319;28;20053;-64
2023/01/24 07:58:53;;;;;;;3.70;1.92;;;;;;;;;;5029249;28;20401;-66
2023/01/24 08:01:25;;;;;;;4.07;1.70;;;;;;;;;;5029194;28;20057;-65
2023/01/24 08:03:57;;;;;;;5.32;1.40;;;;;;;;;;5012858;28;20053;-65
2023/01/24 08:06:27;;;;;;;5.63;1.30;;;;;;;;;;5029264;28;20522;-65
2023/01/24 08:08:58;;;;;;;3.30;1.05;;;;;;;;;;5012646;28;20092;-65
2023/01/24 08:11:29;;;;;;;5.90;1.83;;;;;;;;;;4981586;28;20061;-66
2023/01/24 08:13:59;;;;;;;5.03;1.20;;;;;;;;;;5039537;28;20064;-65
2023/01/24 08:16:29;;;;;;;7.13;1.55;;;;;;;;;;5091555;28;20063;-65
2023/01/24 08:19:00;;;;;;;6.63;1.30;;;;;;;;;;5048354;28;20546;-64
2023/01/24 08:21:29;;;;;;;8.32;1.20;;;;;;;;;;5048870;28;20569;-65
2023/01/24 08:23:59;;;;;;;4.13;1.20;;;;;;;;;;4982527;28;20053;-65
2023/01/24 08:26:29;;;;;;;8.65;1.40;;;;;;;;;;5016103;28;20060;-64
2023/01/24 08:29:00;;;;;;;2.97;1.17;;;;;;;;;;5014967;28;20104;-65
2023/01/24 08:31:29;;;;;;;2.75;1.15;;;;;;;;;;5048479;28;20057;-66
2023/01/24 08:33:59;;;;;;;3.65;1.10;;;;;;;;;;5015153;28;20056;-65
2023/01/24 08:36:29;;;;;;;3.58;1.30;;;;;;;;;;5015253;28;20061;-65
2023/01/24 08:38:59;;;;;;;3.00;1.30;;;;;;;;;;5048494;28;20056;-65
2023/01/24 08:41:35;;;;;;;2.88;1.25;;;;;;;;;;5032814;28;20045;-65
2023/01/24 08:44:05;;;;;;;3.60;1.35;;;;;;;;;;5015240;28;20061;-65
2023/01/24 08:46:36;;;;;;;6.35;1.40;;;;;;;;;;5011567;28;20050;-65
2023/01/24 08:49:06;;;;;;;5.70;1.20;;;;;;;;;;5028154;28;20061;-65
2023/01/24 08:51:35;;;;;;;2.53;1.20;;;;;;;;;;5011741;28;20053;-65
2023/01/24 08:54:06;;;;;;;2.72;1.48;;;;;;;;;;5028108;28;20054;-65
2023/01/24 08:56:36;;;;;;;2.53;1.15;;;;;;;;;;5047366;28;20057;-66
2023/01/24 08:59:06;;;;;;;3.92;1.20;;;;;;;;;;5067973;28;20055;-64
2023/01/24 09:01:36;;;;;;;3.35;1.65;;;;;;;;;;5035618;28;20416;-65
2023/01/24 09:04:06;;;;;;;5.32;1.33;;;;;;;;;;5051057;28;20492;-66
2023/01/24 09:06:35;;;;;;;6.82;1.50;;;;;;;;;;5068029;28;20052;-65
2023/01/24 09:09:05;;;;;;;3.70;1.17;;;;;;;;;;5034434;28;21069;-65
2023/01/24 09:11:35;;;;;;;4.65;1.20;;;;;;;;;;5018812;28;20057;-65
2023/01/24 09:14:05;;;;;;;2.75;1.55;;;;;;;;;;5051127;28;20060;-67
2023/01/24 09:16:35;;;;;;;3.80;1.70;;;;;;;;;;5051112;28;20061;-65
2023/01/24 09:19:05;;;;;;;4.30;1.20;;;;;;;;;;5018363;28;20056;-65
2023/01/24 09:21:36;;;;;;;5.88;1.58;;;;;;;;;;5017970;28;20059;-65
2023/01/24 09:24:07;;;;;;;4.25;1.42;;;;;;;;;;5054884;28;20059;-66
2023/01/24 09:26:37;;;;;;;4.72;1.48;;;;;;;;;;5090599;28;20048;-65
2023/01/24 09:29:07;;;;;;;6.93;1.40;;;;;;;;;;5039824;28;20060;-66
2023/01/24 09:31:40;;;;;;;4.07;1.42;;;;;;;;;;5038507;28;20054;-67
2023/01/24 09:34:10;;;;;;;3.92;1.42;;;;;;;;;;5072871;28;20044;-66
2023/01/24 09:36:40;;;;;;;4.55;1.67;;;;;;;;;;5090359;28;20439;-65
2023/01/24 09:39:10;;;;;;;8.60;1.65;;;;;;;;;;5090564;28;20044;-65
2023/01/24 09:42:00;;;;;;;3.00;1.17;;;;;;;;;;5090149;28;20056;-65
2023/01/24 09:44:41;;;;;;;5.15;1.20;;;;;;;;;;5038053;28;20435;-65
2023/01/24 09:47:37;;;;;;;2.08;1.02;;;;;;;;;;5038476;28;20503;-65
2023/01/24 09:50:29;;;;;;;3.25;1.27;;;;;;;;;;5090209;28;20115;-65
2023/01/24 09:52:59;;;;;;;2.75;1.30;;;;;;;;;;5090359;28;20487;-65
2023/01/24 09:55:37;;;;;;;4.80;1.50;;;;;;;;;;5038087;28;20063;-65
2023/01/24 09:58:31;;;;;;;4.80;1.30;;;;;;;;;;5090316;28;20398;-65
2023/01/24 10:01:07;;;;;;;2.03;0.98;;;;;;;;;;5089127;28;20048;-66
2023/01/24 10:03:37;;;;;;;6.88;2.17;;;;;;;;;;5067104;28;20052;-66
2023/01/24 10:06:17;;;;;;;5.15;1.20;;;;;;;;;;5069293;28;20049;-65
2023/01/24 10:09:09;;;;;;;6.53;1.60;;;;;;;;;;5037810;28;20592;-66
2023/01/24 10:12:04;;;;;;;5.10;1.92;;;;;;;;;;5070899;28;20493;-65
2023/01/24 10:14:52;;;;;;;3.75;1.40;;;;;;;;;;5071154;28;20089;-65
2023/01/24 10:17:40;;;;;;;3.97;1.52;;;;;;;;;;5031013;28;20049;-65
2023/01/24 10:20:43;;;;;;;5.03;1.55;;;;;;;;;;5030890;28;20061;-66
2023/01/24 10:23:17;;;;;;;3.47;1.38;;;;;;;;;;5030672;28;20057;-65
2023/01/24 10:26:01;;;;;;;3.38;0.90;;;;;;;;;;4982592;28;20057;-63
2023/01/24 10:28:44;;;;;;;7.22;1.50;;;;;;;;;;5030964;28;20409;-63
2023/01/24 10:31:23;;;;;;;4.68;1.30;;;;;;;;;;4981242;28;20056;-63
2023/01/24 10:34:04;;;;;;;3.53;1.40;;;;;;;;;;4981743;28;20049;-65
2023/01/24 10:36:37;;;;;;;3.65;1.67;;;;;;;;;;4998549;28;20058;-67
2023/01/24 10:39:09;;;;;;;2.75;0.98;;;;;;;;;;5014097;28;20536;-66
2023/01/24 10:41:40;;;;;;;;;;;;;;;;;;4998021;28;20401;-64
2023/01/24 10:44:23;;;;;;;3.03;1.13;;;;;;;;;;4971573;28;19922;-63
2023/01/24 10:47:21;;;;;;;5.05;1.30;;;;;;;;;;4971522;28;20058;-64
2023/01/24 10:50:01;;;;;;;3.30;1.58;;;;;;;;;;4955467;28;20043;-64
2023/01/24 10:52:33;;;;;;;2.97;1.30;;;;;;;;;;4971563;28;20049;-64
2023/01/24 10:55:22;;;;;;;3.58;1.10;;;;;;;;;;4985337;28;20064;-64
2023/01/24 10:57:54;;;;;;;3.55;1.10;;;;;;;;;;4997651;28;20065;-67
2023/01/24 11:00:30;;;;;;;4.47;1.00;;;;;;;;;;5030177;28;20513;-66
2023/01/24 11:03:04;;;;;;;5.00;0.85;;;;;;;;;;4981067;28;20484;-64
2023/01/24 11:05:47;;;;;;;2.22;0.88;;;;;;;;;;5014206;28;20053;-66
2023/01/24 11:08:21;;;;;;;2.63;1.10;;;;;;;;;;4996682;28;20105;-66
2023/01/24 11:10:54;;;;;;;2.97;1.00;;;;;;;;;;5029927;28;20045;-63
2023/01/24 11:13:41;;;;;;;3.20;1.20;;;;;;;;;;4980988;28;20081;-64
2023/01/24 11:16:16;;;;;;;4.00;1.05;;;;;;;;;;5029798;28;20061;-64
2023/01/24 11:19:20;;;;;;;3.05;1.00;;;;;;;;;;5012000;28;20050;-65
2023/01/24 11:21:53;;;;;;;6.75;0.73;;;;;;;;;;5060189;28;20052;-64
2023/01/24 11:24:24;;;;;;;4.22;0.98;;;;;;;;;;5092347;28;20416;-64
2023/01/24 11:27:02;;;;;;;3.83;0.90;;;;;;;;;;5092339;28;20044;-64
2023/01/24 11:29:33;;;;;;;5.22;1.08;;;;;;;;;;5092236;28;20052;-64
2023/01/24 11:32:24;;;;;;;4.72;1.10;;;;;;;;;;5039832;28;20404;-65
2023/01/24 11:35:22;;;;;;;4.00;0.90;;;;;;;;;;5039740;28;20056;-65
2023/01/24 11:38:13;;;;;;;2.47;0.60;;;;;;;;;;5092259;28;20052;-64
2023/01/24 11:41:02;;;;;;;;;;;;;;;;;;5092601;28;20047;-65
2023/01/24 11:44:04;;;;;;;5.50;0.80;;;;;;;;;;5039923;28;19920;-65
2023/01/24 11:46:51;;;;;;;2.33;1.05;;;;;;;;;;5073042;28;20489;-65
2023/01/24 11:49:38;;;;;;;2.33;1.15;;;;;;;;;;5039964;28;20048;-64
2023/01/24 11:52:36;;;;;;;3.72;0.80;;;;;;;;;;5091772;28;20040;-65
2023/01/24 11:55:28;;;;;;;1.08;0.85;;;;;;;;;;5016167;28;20057;-65
2023/01/24 11:58:33;;;;;;;3.67;1.02;;;;;;;;;;4952823;28;20057;-65
2023/01/24 12:01:21;;;;;;;1.83;0.75;;;;;;;;;;5032464;28;20053;-65
2023/01/24 12:04:23;;;;;;;7.18;1.10;;;;;;;;;;5048971;28;20056;-65
2023/01/24 12:07:19;;;;;;;1.75;0.63;;;;;;;;;;5009455;28;20064;-65
2023/01/24 12:10:00;;;;;;;4.43;0.93;;;;;;;;;;4989263;28;20058;-65
2023/01/24 12:13:10;;;;;;;2.13;0.80;;;;;;;;;;4957378;28;20065;-65
2023/01/24 12:16:11;;;;;;;1.88;0.50;;;;;;;;;;4957319;28;20062;-65
2023/01/24 12:19:13;;;;;;;1.90;0.82;;;;;;;;;;4989648;28;20400;-65
2023/01/24 12:21:44;;;;;;;1.63;0.80;;;;;;;;;;4989310;28;20050;-65
2023/01/24 12:24:24;;;;;;;1.40;0.70;;;;;;;;;;4957259;28;20678;-65
2023/01/24 12:26:59;;;;;;;1.30;1.02;;;;;;;;;;4941183;28;20089;-65
2023/01/24 12:29:39;;;;;;;1.42;0.63;;;;;;;;;;4988746;28;20054;-65
2023/01/24 12:32:32;;;;;;;3.88;0.60;;;;;;;;;;4973421;28;20589;-65
2023/01/24 12:35:23;;;;;;;1.25;0.73;;;;;;;;;;4989456;28;20066;-65
2023/01/24 12:38:03;;;;;;;1.60;0.98;;;;;;;;;;4972960;28;20442;-65
2023/01/24 12:41:18;;;;;;;1.80;1.13;;;;;;;;;;4988966;28;20214;-65
2023/01/24 12:43:53;;;;;;;3.22;0.70;;;;;;;;;;4997823;28;20575;-66
2023/01/24 12:46:50;;;;;;;2.75;0.80;;;;;;;;;;5001381;28;20057;-65
2023/01/24 12:49:30;;;;;;;3.17;0.85;;;;;;;;;;5038506;28;20048;-66
2023/01/24 12:52:31;;;;;;;1.13;0.75;;;;;;;;;;5047944;28;20056;-66
2023/01/24 12:55:11;;;;;;;1.60;1.10;;;;;;;;;;5048051;28;20386;-65
2023/01/24 12:57:51;;;;;;;1.27;0.70;;;;;;;;;;5048083;28;20188;-66
2023/01/24 13:00:24;;;;;;;3.13;0.70;;;;;;;;;;4999615;28;20516;-66
2023/01/24 13:03:13;;;;;;;2.55;0.73;;;;;;;;;;5048018;28;20084;-66
2023/01/24 13:05:54;;;;;;;3.05;0.73;;;;;;;;;;5015230;28;20048;-65
2023/01/24 13:08:39;;;;;;;5.30;0.70;;;;;;;;;;5047964;28;20048;-66
2023/01/24 13:11:29;;;;;;;1.73;1.00;;;;;;;;;;5014901;28;20049;-65
2023/01/24 13:14:24;;;;;;;1.80;0.93;;;;;;;;;;5048007;28;20041;-66
2023/01/24 13:17:02;;;;;;;1.10;0.88;;;;;;;;;;5047741;28;20064;-65
2023/01/24 13:19:48;;;;;;;2.42;0.70;;;;;;;;;;5047829;28;20257;-66
2023/01/24 13:22:41;;;;;;;1.33;0.77;;;;;;;;;;5015055;28;20045;-65
2023/01/24 13:25:41;;;;;;;1.67;0.70;;;;;;;;;;5047940;28;20049;-65
2023/01/24 13:28:16;;;;;;;0.82;0.70;;;;;;;;;;5047798;28;20045;-65
2023/01/24 13:31:24;;;;;;;6.43;0.95;;;;;;;;;;5035446;28;20056;-65
2023/01/24 13:33:59;;;;;;;1.75;1.13;;;;;;;;;;5090180;28;20036;-66
2023/01/24 13:36:34;;;;;;;2.38;0.95;;;;;;;;;;5038372;28;20052;-66
2023/01/24 13:39:06;;;;;;;4.53;1.02;;;;;;;;;;5054551;28;20059;-66
2023/01/24 13:41:38;;;;;;;1.20;0.75;;;;;;;;;;5024747;28;20059;-66
2023/01/24 13:44:08;;;;;;;1.60;0.90;;;;;;;;;;5042469;28;20523;-66
2023/01/24 13:46:44;;;;;;;1.63;0.80;;;;;;;;;;5094236;28;20048;-66
2023/01/24 13:49:31;;;;;;;1.83;0.82;;;;;;;;;;5042253;28;20064;-66
2023/01/24 13:52:36;;;;;;;2.22;0.80;;;;;;;;;;5094277;28;20048;-66
2023/01/24 13:55:24;;;;;;;1.40;0.82;;;;;;;;;;5058552;28;20044;-66
2023/01/24 13:58:11;;;;;;;1.60;0.82;;;;;;;;;;5094367;28;20039;-66
2023/01/24 14:00:52;;;;;;;7.18;3.55;;;;;;;;;;5075535;28;20060;-66
2023/01/24 14:03:28;;;;;;;2.65;0.98;;;;;;;;;;5094451;28;20491;-66
2023/01/24 14:06:14;;;;;;;5.50;1.00;;;;;;;;;;5057901;28;20040;-66
2023/01/24 14:09:18;;;;;;;2.05;0.73;;;;;;;;;;5041738;28;20060;-66
2023/01/24 14:12:04;;;;;;;2.15;1.00;;;;;;;;;;5094141;28;20047;-66
2023/01/24 14:14:36;;;;;;;2.40;0.93;;;;;;;;;;5093960;28;20044;-66
2023/01/24 14:17:46;;;;;;;3.00;0.98;;;;;;;;;;5058289;28;20051;-66
2023/01/24 14:20:45;;;;;;;2.20;0.90;;;;;;;;;;5057685;28;20052;-65
2023/01/24 14:23:30;;;;;;;2.75;1.00;;;;;;;;;;5058807;28;20067;-66
2023/01/24 14:26:05;;;;;;;2.28;0.85;;;;;;;;;;5025542;28;20059;-66
2023/01/24 14:28:45;;;;;;;1.50;0.90;;;;;;;;;;5093520;28;20047;-66
2023/01/24 14:31:37;;;;;;;3.53;1.00;;;;;;;;;;5093520;28;20400;-66
2023/01/24 14:34:21;;;;;;;3.38;0.75;;;;;;;;;;5093293;28;20051;-70
2023/01/24 14:37:01;;;;;;;1.50;1.00;;;;;;;;;;5057934;28;20052;-66
2023/01/24 14:39:31;;;;;;;1.30;0.90;;;;;;;;;;5050533;28;20535;-66
2023/01/24 14:42:04;;;;;;;2.55;0.82;;;;;;;;;;5050661;28;20128;-66
2023/01/24 14:44:37;;;;;;;3.42;1.05;;;;;;;;;;5034052;28;20060;-66
2023/01/24 14:47:22;;;;;;;0.82;0.70;;;;;;;;;;5017612;28;20053;-65
2023/01/24 14:49:55;;;;;;;3.15;1.08;;;;;;;;;;5017250;28;20052;-65
2023/01/24 14:52:32;;;;;;;2.65;0.77;;;;;;;;;;5017227;28;20044;-65
2023/01/24 14:55:31;;;;;;;2.63;1.00;;;;;;;;;;5000603;28;20425;-65
2023/01/24 14:58:21;;;;;;;2.28;0.90;;;;;;;;;;5050431;28;20060;-66
2023/01/24 15:00:52;;;;;;;;;;;;;;;;;;5034383;28;20068;-64
2023/01/24 15:03:25;;;;;;;2.17;0.90;;;;;;;;;;5050278;28;19920;-65
2023/01/24 15:05:58;;;;;;;1.55;0.88;;;;;;;;;;5050173;28;20048;-65
2023/01/24 15:08:29;;;;;;;2.90;1.10;;;;;;;;;;5029970;28;20057;-65
2023/01/24 15:11:06;;;;;;;;;;;;;;;;;;5030765;28;20502;-65
2023/01/24 15:13:44;;;;;;;1.67;1.10;;;;;;;;;;5030138;28;20348;-64
2023/01/24 15:16:47;;;;;;;1.60;0.82;;;;;;;;;;5032525;28;20057;-65
2023/01/24 15:19:25;;;;;;;3.72;1.48;;;;;;;;;;4990665;28;20054;-63
2023/01/24 15:21:56;;;;;;;1.77;0.80;;;;;;;;;;4990716;28;20047;-65
2023/01/24 15:24:31;;;;;;;2.40;0.80;;;;;;;;;;4970692;28;20047;-65
2023/01/24 15:27:40;;;;;;;1.60;0.80;;;;;;;;;;4971105;28;20069;-65
2023/01/24 15:30:12;;;;;;;3.33;0.95;;;;;;;;;;4970819;28;20062;-65
2023/01/24 15:32:50;;;;;;;1.00;0.77;;;;;;;;;;4970805;28;20059;-63
2023/01/24 15:35:28;;;;;;;2.88;0.80;;;;;;;;;;4954777;28;20062;-64
2023/01/24 15:38:04;;;;;;;1.20;0.75;;;;;;;;;;4954466;28;20049;-64
2023/01/24 15:40:36;;;;;;;1.80;0.77;;;;;;;;;;4970900;28;20062;-65
2023/01/24 15:49:21;;;;;;;1.65;0.70;;;;;;;;;;4990243;28;20538;-64
2023/01/24 15:52:07;;;;;;;3.72;0.82;;;;;;;;;;4989987;28;20062;-64
2023/01/24 15:54:39;;;;;;;2.65;0.95;;;;;;;;;;4989920;28;20050;-64
2023/01/24 15:57:24;;;;;;;1.23;0.90;;;;;;;;;;5045220;28;20049;-64
2023/01/24 16:00:09;;;;;;;2.78;0.95;;;;;;;;;;5009109;28;20050;-65
2023/01/24 16:02:39;;;;;;;1.80;0.93;;;;;;;;;;5038269;28;20057;-64
2023/01/24 16:05:15;;;;;;;1.65;0.90;;;;;;;;;;5031695;28;20049;-64
2023/01/24 16:07:46;;;;;;;1.85;0.80;;;;;;;;;;5049477;28;20045;-67
2023/01/24 16:10:17;;;;;;;1.48;0.90;;;;;;;;;;5032607;28;20052;-64
2023/01/24 16:12:50;;;;;;;2.47;1.33;;;;;;;;;;5049117;28;20504;-65
2023/01/24 16:15:21;;;;;;;1.65;0.85;;;;;;;;;;5000354;28;20643;-66
2023/01/24 16:17:51;;;;;;;4.00;1.20;;;;;;;;;;5049285;28;20402;-66
2023/01/24 16:20:27;;;;;;;2.22;0.90;;;;;;;;;;5048841;28;20053;-66
2023/01/24 16:22:57;;;;;;;1.90;0.80;;;;;;;;;;5048977;28;20041;-65
2023/01/24 16:25:27;;;;;;;2.10;0.75;;;;;;;;;;5031826;28;20060;-65
2023/01/24 16:27:57;;;;;;;1.63;0.70;;;;;;;;;;5032073;28;20052;-66